Kimolos, Greece
Current Conditions -  °F | °C
As of 7:20 AM on Thursday 27 Nov 2014 (Local Time) from LGSR Reporting Station
NA  
Wind Chill: 54°   Ceiling: NA
Heat Index: 54°   Visibility: NA
Dew Point: 41°   Wind: 13mph
Humidity: 62%   Direction: 330°NNW
Pressure: 30.12"   Gusts: NA
Location:  36.79°N, 24.57°E
Report Text: LGSR 270420Z AUTO 33011KT //// // ////// 12/05 Q1020 RE//
Loading
Personal Weather Stations






























Interactive Weather Map New forecast layout! Learn more

10-Day Weather Forecast

Advertisements
Track Severe Weather on mobile